sensor_id;sensor_type;location;lat;lon;timestamp;P1;durP1;ratioP1;P2;durP2;ratioP2
51612;SDS011;37694;51.748;14.326;2023-04-29T00:00:48;9.60;;;5.03;;
51612;SDS011;37694;51.748;14.326;2023-04-29T00:03:13;7.53;;;6.13;;
51612;SDS011;37694;51.748;14.326;2023-04-29T00:05:39;6.15;;;5.40;;
51612;SDS011;37694;51.748;14.326;2023-04-29T00:08:05;7.32;;;5.97;;
51612;SDS011;37694;51.748;14.326;2023-04-29T00:10:30;6.07;;;5.00;;
51612;SDS011;37694;51.748;14.326;2023-04-29T00:12:56;7.10;;;5.53;;
51612;SDS011;37694;51.748;14.326;2023-04-29T00:15:22;6.35;;;5.75;;
51612;SDS011;37694;51.748;14.326;2023-04-29T00:17:47;8.00;;;5.25;;
51612;SDS011;37694;51.748;14.326;2023-04-29T00:20:14;7.28;;;5.82;;
51612;SDS011;37694;51.748;14.326;2023-04-29T00:22:40;5.75;;;5.15;;
51612;SDS011;37694;51.748;14.326;2023-04-29T00:25:06;13.75;;;5.22;;
51612;SDS011;37694;51.748;14.326;2023-04-29T00:27:32;5.72;;;4.93;;
51612;SDS011;37694;51.748;14.326;2023-04-29T00:29:57;9.15;;;5.20;;
51612;SDS011;37694;51.748;14.326;2023-04-29T00:32:23;6.97;;;5.65;;
51612;SDS011;37694;51.748;14.326;2023-04-29T00:34:49;6.60;;;5.63;;
51612;SDS011;37694;51.748;14.326;2023-04-29T00:37:15;7.88;;;5.93;;
51612;SDS011;37694;51.748;14.326;2023-04-29T00:39:41;7.22;;;5.20;;
51612;SDS011;37694;51.748;14.326;2023-04-29T00:42:07;5.70;;;5.10;;
51612;SDS011;37694;51.748;14.326;2023-04-29T00:44:33;7.68;;;5.13;;
51612;SDS011;37694;51.748;14.326;2023-04-29T00:46:59;7.80;;;5.68;;
51612;SDS011;37694;51.748;14.326;2023-04-29T00:49:25;7.65;;;5.05;;
51612;SDS011;37694;51.748;14.326;2023-04-29T00:51:51;6.32;;;5.68;;
51612;SDS011;37694;51.748;14.326;2023-04-29T00:54:18;5.82;;;5.20;;
51612;SDS011;37694;51.748;14.326;2023-04-29T00:56:44;7.20;;;5.47;;
51612;SDS011;37694;51.748;14.326;2023-04-29T00:59:11;5.70;;;5.10;;
51612;SDS011;37694;51.748;14.326;2023-04-29T01:01:39;7.43;;;5.60;;
51612;SDS011;37694;51.748;14.326;2023-04-29T01:04:05;7.00;;;5.13;;
51612;SDS011;37694;51.748;14.326;2023-04-29T01:06:47;6.47;;;5.28;;
51612;SDS011;37694;51.748;14.326;2023-04-29T01:11:44;5.70;;;5.10;;
51612;SDS011;37694;51.748;14.326;2023-04-29T01:14:30;6.88;;;5.30;;
51612;SDS011;37694;51.748;14.326;2023-04-29T01:16:59;5.88;;;5.38;;
51612;SDS011;37694;51.748;14.326;2023-04-29T01:22:24;5.32;;;4.82;;
51612;SDS011;37694;51.748;14.326;2023-04-29T01:24:50;5.32;;;4.88;;
51612;SDS011;37694;51.748;14.326;2023-04-29T01:30:16;5.40;;;4.90;;
51612;SDS011;37694;51.748;14.326;2023-04-29T01:33:13;9.43;;;5.10;;
51612;SDS011;37694;51.748;14.326;2023-04-29T01:35:50;5.20;;;4.70;;
51612;SDS011;37694;51.748;14.326;2023-04-29T01:38:52;6.13;;;5.07;;
51612;SDS011;37694;51.748;14.326;2023-04-29T01:41:42;5.40;;;4.90;;
51612;SDS011;37694;51.748;14.326;2023-04-29T01:44:15;5.80;;;5.28;;
51612;SDS011;37694;51.748;14.326;2023-04-29T01:46:48;7.90;;;4.90;;
51612;SDS011;37694;51.748;14.326;2023-04-29T01:49:19;6.90;;;5.28;;
51612;SDS011;37694;51.748;14.326;2023-04-29T01:51:51;5.65;;;5.03;;
51612;SDS011;37694;51.748;14.326;2023-04-29T01:54:16;9.52;;;5.63;;
51612;SDS011;37694;51.748;14.326;2023-04-29T01:56:42;5.20;;;4.68;;
51612;SDS011;37694;51.748;14.326;2023-04-29T01:59:08;7.88;;;5.20;;
51612;SDS011;37694;51.748;14.326;2023-04-29T02:01:34;5.88;;;5.03;;
51612;SDS011;37694;51.748;14.326;2023-04-29T02:04:01;7.35;;;5.38;;
51612;SDS011;37694;51.748;14.326;2023-04-29T02:06:27;5.43;;;4.60;;
51612;SDS011;37694;51.748;14.326;2023-04-29T02:08:52;5.85;;;4.95;;
51612;SDS011;37694;51.748;14.326;2023-04-29T02:11:18;5.90;;;5.35;;
51612;SDS011;37694;51.748;14.326;2023-04-29T02:13:44;5.65;;;4.97;;
51612;SDS011;37694;51.748;14.326;2023-04-29T02:16:11;6.63;;;5.03;;
51612;SDS011;37694;51.748;14.326;2023-04-29T02:18:37;5.93;;;5.05;;
51612;SDS011;37694;51.748;14.326;2023-04-29T02:21:04;5.93;;;5.32;;
51612;SDS011;37694;51.748;14.326;2023-04-29T02:23:30;6.18;;;5.57;;
51612;SDS011;37694;51.748;14.326;2023-04-29T02:25:55;5.18;;;4.78;;
51612;SDS011;37694;51.748;14.326;2023-04-29T02:28:21;6.25;;;4.65;;
51612;SDS011;37694;51.748;14.326;2023-04-29T02:30:50;5.95;;;4.93;;
51612;SDS011;37694;51.748;14.326;2023-04-29T02:33:15;6.38;;;4.82;;
51612;SDS011;37694;51.748;14.326;2023-04-29T02:35:42;5.88;;;5.20;;
51612;SDS011;37694;51.748;14.326;2023-04-29T02:38:08;5.78;;;4.57;;
51612;SDS011;37694;51.748;14.326;2023-04-29T02:40:39;6.32;;;4.65;;
51612;SDS011;37694;51.748;14.326;2023-04-29T02:43:08;4.95;;;4.43;;
51612;SDS011;37694;51.748;14.326;2023-04-29T02:45:34;5.25;;;4.68;;
51612;SDS011;37694;51.748;14.326;2023-04-29T02:48:00;5.28;;;4.70;;
51612;SDS011;37694;51.748;14.326;2023-04-29T02:50:26;5.30;;;4.10;;
51612;SDS011;37694;51.748;14.326;2023-04-29T02:52:52;7.63;;;4.78;;
51612;SDS011;37694;51.748;14.326;2023-04-29T02:55:18;5.90;;;4.85;;
51612;SDS011;37694;51.748;14.326;2023-04-29T02:57:44;5.65;;;4.80;;
51612;SDS011;37694;51.748;14.326;2023-04-29T03:00:10;7.05;;;5.00;;
51612;SDS011;37694;51.748;14.326;2023-04-29T03:02:36;6.28;;;5.07;;
51612;SDS011;37694;51.748;14.326;2023-04-29T03:05:02;5.97;;;4.78;;
51612;SDS011;37694;51.748;14.326;2023-04-29T03:07:28;5.13;;;4.63;;
51612;SDS011;37694;51.748;14.326;2023-04-29T03:09:54;5.05;;;4.38;;
51612;SDS011;37694;51.748;14.326;2023-04-29T03:12:20;6.68;;;4.38;;
51612;SDS011;37694;51.748;14.326;2023-04-29T03:14:46;4.63;;;4.18;;
51612;SDS011;37694;51.748;14.326;2023-04-29T03:17:12;5.30;;;4.80;;
51612;SDS011;37694;51.748;14.326;2023-04-29T03:19:39;6.22;;;4.88;;
51612;SDS011;37694;51.748;14.326;2023-04-29T03:22:05;6.18;;;4.45;;
51612;SDS011;37694;51.748;14.326;2023-04-29T03:24:34;5.68;;;4.65;;
51612;SDS011;37694;51.748;14.326;2023-04-29T03:26:59;5.95;;;4.85;;
51612;SDS011;37694;51.748;14.326;2023-04-29T03:29:25;5.15;;;4.63;;
51612;SDS011;37694;51.748;14.326;2023-04-29T03:31:51;4.82;;;4.40;;
51612;SDS011;37694;51.748;14.326;2023-04-29T03:34:18;5.13;;;4.60;;
51612;SDS011;37694;51.748;14.326;2023-04-29T03:36:44;5.53;;;4.70;;
51612;SDS011;37694;51.748;14.326;2023-04-29T03:39:10;6.25;;;4.65;;
51612;SDS011;37694;51.748;14.326;2023-04-29T03:41:38;5.53;;;5.03;;
51612;SDS011;37694;51.748;14.326;2023-04-29T03:44:04;6.10;;;4.05;;
51612;SDS011;37694;51.748;14.326;2023-04-29T03:46:30;6.95;;;4.20;;
51612;SDS011;37694;51.748;14.326;2023-04-29T03:48:56;8.85;;;5.03;;
51612;SDS011;37694;51.748;14.326;2023-04-29T03:51:25;5.30;;;4.53;;
51612;SDS011;37694;51.748;14.326;2023-04-29T03:53:51;4.90;;;4.43;;
51612;SDS011;37694;51.748;14.326;2023-04-29T03:56:20;4.70;;;4.28;;
51612;SDS011;37694;51.748;14.326;2023-04-29T03:58:47;5.60;;;4.65;;
51612;SDS011;37694;51.748;14.326;2023-04-29T04:01:12;5.25;;;4.75;;
51612;SDS011;37694;51.748;14.326;2023-04-29T04:03:39;5.25;;;4.75;;
51612;SDS011;37694;51.748;14.326;2023-04-29T04:06:05;7.30;;;4.90;;
51612;SDS011;37694;51.748;14.326;2023-04-29T04:08:30;4.55;;;4.15;;
51612;SDS011;37694;51.748;14.326;2023-04-29T04:10:56;5.15;;;4.63;;
51612;SDS011;37694;51.748;14.326;2023-04-29T04:13:27;5.40;;;4.22;;
51612;SDS011;37694;51.748;14.326;2023-04-29T04:15:53;4.57;;;4.10;;
51612;SDS011;37694;51.748;14.326;2023-04-29T04:18:18;5.05;;;4.50;;
51612;SDS011;37694;51.748;14.326;2023-04-29T04:20:44;8.10;;;4.35;;
51612;SDS011;37694;51.748;14.326;2023-04-29T04:23:10;6.53;;;4.55;;
51612;SDS011;37694;51.748;14.326;2023-04-29T04:25:35;4.60;;;4.10;;
51612;SDS011;37694;51.748;14.326;2023-04-29T04:28:01;4.50;;;4.10;;
51612;SDS011;37694;51.748;14.326;2023-04-29T04:30:27;4.68;;;4.28;;
51612;SDS011;37694;51.748;14.326;2023-04-29T04:32:53;5.55;;;4.57;;
51612;SDS011;37694;51.748;14.326;2023-04-29T04:35:18;4.45;;;4.05;;
51612;SDS011;37694;51.748;14.326;2023-04-29T04:37:44;4.40;;;4.00;;
51612;SDS011;37694;51.748;14.326;2023-04-29T04:40:10;4.47;;;4.07;;
51612;SDS011;37694;51.748;14.326;2023-04-29T04:42:37;4.13;;;3.60;;
51612;SDS011;37694;51.748;14.326;2023-04-29T04:45:03;4.25;;;3.90;;
51612;SDS011;37694;51.748;14.326;2023-04-29T04:47:29;5.53;;;4.45;;
51612;SDS011;37694;51.748;14.326;2023-04-29T04:49:55;4.97;;;3.95;;
51612;SDS011;37694;51.748;14.326;2023-04-29T04:52:21;4.30;;;3.90;;
51612;SDS011;37694;51.748;14.326;2023-04-29T04:54:46;6.78;;;3.90;;
51612;SDS011;37694;51.748;14.326;2023-04-29T04:57:12;4.78;;;4.18;;
51612;SDS011;37694;51.748;14.326;2023-04-29T04:59:38;4.38;;;3.97;;
51612;SDS011;37694;51.748;14.326;2023-04-29T05:02:03;5.53;;;4.15;;
51612;SDS011;37694;51.748;14.326;2023-04-29T05:04:29;4.60;;;4.20;;
51612;SDS011;37694;51.748;14.326;2023-04-29T05:06:55;4.32;;;3.92;;
51612;SDS011;37694;51.748;14.326;2023-04-29T05:09:20;6.10;;;4.15;;
51612;SDS011;37694;51.748;14.326;2023-04-29T05:11:46;5.00;;;3.92;;
51612;SDS011;37694;51.748;14.326;2023-04-29T05:14:12;4.93;;;4.35;;
51612;SDS011;37694;51.748;14.326;2023-04-29T05:16:38;4.00;;;3.70;;
51612;SDS011;37694;51.748;14.326;2023-04-29T05:19:03;3.88;;;3.47;;
51612;SDS011;37694;51.748;14.326;2023-04-29T05:21:29;4.68;;;4.13;;
51612;SDS011;37694;51.748;14.326;2023-04-29T05:23:55;3.63;;;3.33;;
51612;SDS011;37694;51.748;14.326;2023-04-29T05:26:21;7.85;;;4.22;;
51612;SDS011;37694;51.748;14.326;2023-04-29T05:28:47;5.28;;;4.30;;
51612;SDS011;37694;51.748;14.326;2023-04-29T05:31:13;12.77;;;4.13;;
51612;SDS011;37694;51.748;14.326;2023-04-29T05:33:39;12.25;;;4.95;;
51612;SDS011;37694;51.748;14.326;2023-04-29T05:36:05;11.30;;;4.32;;
51612;SDS011;37694;51.748;14.326;2023-04-29T05:38:31;9.10;;;4.63;;
51612;SDS011;37694;51.748;14.326;2023-04-29T05:40:56;8.90;;;4.68;;
51612;SDS011;37694;51.748;14.326;2023-04-29T05:43:22;7.82;;;4.35;;
51612;SDS011;37694;51.748;14.326;2023-04-29T05:45:48;11.07;;;4.50;;
51612;SDS011;37694;51.748;14.326;2023-04-29T05:48:14;13.10;;;4.47;;
51612;SDS011;37694;51.748;14.326;2023-04-29T05:50:40;8.98;;;4.53;;
51612;SDS011;37694;51.748;14.326;2023-04-29T05:53:06;4.68;;;3.40;;
51612;SDS011;37694;51.748;14.326;2023-04-29T05:55:31;6.03;;;3.97;;
51612;SDS011;37694;51.748;14.326;2023-04-29T05:57:57;8.43;;;3.95;;
51612;SDS011;37694;51.748;14.326;2023-04-29T06:00:23;5.00;;;3.47;;
51612;SDS011;37694;51.748;14.326;2023-04-29T06:02:48;10.25;;;4.57;;
51612;SDS011;37694;51.748;14.326;2023-04-29T06:05:14;8.07;;;3.70;;
51612;SDS011;37694;51.748;14.326;2023-04-29T06:07:40;9.10;;;3.78;;
51612;SDS011;37694;51.748;14.326;2023-04-29T06:10:07;9.88;;;3.88;;
51612;SDS011;37694;51.748;14.326;2023-04-29T06:12:33;6.03;;;3.35;;
51612;SDS011;37694;51.748;14.326;2023-04-29T06:14:59;7.15;;;4.07;;
51612;SDS011;37694;51.748;14.326;2023-04-29T06:17:25;7.50;;;3.50;;
51612;SDS011;37694;51.748;14.326;2023-04-29T06:19:53;6.03;;;3.30;;
51612;SDS011;37694;51.748;14.326;2023-04-29T06:22:19;11.60;;;3.60;;
51612;SDS011;37694;51.748;14.326;2023-04-29T06:24:45;4.63;;;3.72;;
51612;SDS011;37694;51.748;14.326;2023-04-29T06:27:13;7.88;;;3.85;;
51612;SDS011;37694;51.748;14.326;2023-04-29T06:29:40;8.60;;;3.70;;
51612;SDS011;37694;51.748;14.326;2023-04-29T06:32:06;9.85;;;4.20;;
51612;SDS011;37694;51.748;14.326;2023-04-29T06:34:31;9.90;;;4.22;;
51612;SDS011;37694;51.748;14.326;2023-04-29T06:36:57;6.20;;;3.65;;
51612;SDS011;37694;51.748;14.326;2023-04-29T06:39:23;5.78;;;3.55;;
51612;SDS011;37694;51.748;14.326;2023-04-29T06:41:48;5.65;;;3.90;;
51612;SDS011;37694;51.748;14.326;2023-04-29T06:44:14;9.20;;;3.40;;
51612;SDS011;37694;51.748;14.326;2023-04-29T06:46:42;10.05;;;3.92;;
51612;SDS011;37694;51.748;14.326;2023-04-29T06:49:08;8.45;;;4.00;;
51612;SDS011;37694;51.748;14.326;2023-04-29T06:51:35;9.18;;;3.60;;
51612;SDS011;37694;51.748;14.326;2023-04-29T06:54:02;16.85;;;4.03;;
51612;SDS011;37694;51.748;14.326;2023-04-29T06:56:28;11.35;;;3.58;;
51612;SDS011;37694;51.748;14.326;2023-04-29T06:58:53;10.70;;;3.90;;
51612;SDS011;37694;51.748;14.326;2023-04-29T07:01:19;24.50;;;5.10;;
51612;SDS011;37694;51.748;14.326;2023-04-29T07:03:45;17.02;;;4.47;;
51612;SDS011;37694;51.748;14.326;2023-04-29T07:06:11;14.55;;;4.55;;
51612;SDS011;37694;51.748;14.326;2023-04-29T07:08:37;12.15;;;4.45;;
51612;SDS011;37694;51.748;14.326;2023-04-29T07:11:02;11.88;;;3.67;;
51612;SDS011;37694;51.748;14.326;2023-04-29T07:13:28;22.83;;;4.43;;
51612;SDS011;37694;51.748;14.326;2023-04-29T07:15:54;10.68;;;3.90;;
51612;SDS011;37694;51.748;14.326;2023-04-29T07:18:19;15.60;;;4.95;;
51612;SDS011;37694;51.748;14.326;2023-04-29T07:20:45;15.95;;;4.30;;
51612;SDS011;37694;51.748;14.326;2023-04-29T07:23:12;15.23;;;3.88;;
51612;SDS011;37694;51.748;14.326;2023-04-29T07:25:38;13.05;;;4.25;;
51612;SDS011;37694;51.748;14.326;2023-04-29T07:28:05;15.38;;;3.78;;
51612;SDS011;37694;51.748;14.326;2023-04-29T07:30:30;11.50;;;3.65;;
51612;SDS011;37694;51.748;14.326;2023-04-29T07:32:56;9.75;;;3.70;;
51612;SDS011;37694;51.748;14.326;2023-04-29T07:35:22;15.73;;;4.25;;
51612;SDS011;37694;51.748;14.326;2023-04-29T07:37:48;13.65;;;4.40;;
51612;SDS011;37694;51.748;14.326;2023-04-29T07:40:14;17.23;;;3.83;;
51612;SDS011;37694;51.748;14.326;2023-04-29T07:42:40;10.50;;;3.58;;
51612;SDS011;37694;51.748;14.326;2023-04-29T07:45:05;11.52;;;3.72;;
51612;SDS011;37694;51.748;14.326;2023-04-29T07:47:31;11.27;;;4.00;;
51612;SDS011;37694;51.748;14.326;2023-04-29T07:49:57;7.43;;;3.45;;
51612;SDS011;37694;51.748;14.326;2023-04-29T07:52:23;7.43;;;3.40;;
51612;SDS011;37694;51.748;14.326;2023-04-29T07:54:48;9.48;;;3.70;;
51612;SDS011;37694;51.748;14.326;2023-04-29T07:57:14;9.88;;;3.75;;
51612;SDS011;37694;51.748;14.326;2023-04-29T07:59:40;6.95;;;3.45;;
51612;SDS011;37694;51.748;14.326;2023-04-29T08:02:05;12.05;;;3.97;;
51612;SDS011;37694;51.748;14.326;2023-04-29T08:04:31;19.55;;;3.90;;
51612;SDS011;37694;51.748;14.326;2023-04-29T08:06:57;14.82;;;4.18;;
51612;SDS011;37694;51.748;14.326;2023-04-29T08:09:23;13.57;;;4.75;;
51612;SDS011;37694;51.748;14.326;2023-04-29T08:11:49;30.33;;;4.60;;
51612;SDS011;37694;51.748;14.326;2023-04-29T08:14:14;24.55;;;4.78;;
51612;SDS011;37694;51.748;14.326;2023-04-29T08:16:40;53.63;;;5.93;;
51612;SDS011;37694;51.748;14.326;2023-04-29T08:19:06;39.90;;;5.35;;
51612;SDS011;37694;51.748;14.326;2023-04-29T08:21:31;28.50;;;5.47;;
51612;SDS011;37694;51.748;14.326;2023-04-29T08:23:58;36.03;;;5.93;;
51612;SDS011;37694;51.748;14.326;2023-04-29T08:26:24;25.35;;;4.75;;
51612;SDS011;37694;51.748;14.326;2023-04-29T08:28:49;27.48;;;5.55;;
51612;SDS011;37694;51.748;14.326;2023-04-29T08:31:16;52.35;;;5.95;;
51612;SDS011;37694;51.748;14.326;2023-04-29T08:33:42;39.08;;;5.10;;
51612;SDS011;37694;51.748;14.326;2023-04-29T08:36:08;70.70;;;7.40;;
51612;SDS011;37694;51.748;14.326;2023-04-29T08:38:34;34.08;;;6.25;;
51612;SDS011;37694;51.748;14.326;2023-04-29T08:40:59;41.80;;;7.85;;
51612;SDS011;37694;51.748;14.326;2023-04-29T08:43:25;69.03;;;14.93;;
51612;SDS011;37694;51.748;14.326;2023-04-29T08:45:51;70.40;;;13.38;;
51612;SDS011;37694;51.748;14.326;2023-04-29T08:48:17;77.40;;;14.82;;
51612;SDS011;37694;51.748;14.326;2023-04-29T08:50:43;74.97;;;14.10;;
51612;SDS011;37694;51.748;14.326;2023-04-29T08:53:10;86.53;;;12.80;;
51612;SDS011;37694;51.748;14.326;2023-04-29T08:55:44;82.85;;;14.50;;
51612;SDS011;37694;51.748;14.326;2023-04-29T08:58:12;72.95;;;14.02;;
51612;SDS011;37694;51.748;14.326;2023-04-29T09:00:39;69.35;;;12.98;;
51612;SDS011;37694;51.748;14.326;2023-04-29T09:03:17;58.88;;;12.15;;
51612;SDS011;37694;51.748;14.326;2023-04-29T09:08:20;60.22;;;11.80;;
51612;SDS011;37694;51.748;14.326;2023-04-29T09:10:48;51.45;;;11.43;;
51612;SDS011;37694;51.748;14.326;2023-04-29T09:13:22;47.55;;;10.23;;
51612;SDS011;37694;51.748;14.326;2023-04-29T09:15:49;58.85;;;11.23;;
51612;SDS011;37694;51.748;14.326;2023-04-29T09:21:12;46.55;;;9.65;;
51612;SDS011;37694;51.748;14.326;2023-04-29T09:23:38;39.30;;;8.90;;
51612;SDS011;37694;51.748;14.326;2023-04-29T09:26:03;46.13;;;10.00;;
51612;SDS011;37694;51.748;14.326;2023-04-29T09:28:29;37.97;;;9.50;;
51612;SDS011;37694;51.748;14.326;2023-04-29T09:30:55;40.08;;;9.00;;
51612;SDS011;37694;51.748;14.326;2023-04-29T09:33:21;28.88;;;7.68;;
51612;SDS011;37694;51.748;14.326;2023-04-29T09:35:46;33.88;;;8.70;;
51612;SDS011;37694;51.748;14.326;2023-04-29T09:38:13;30.23;;;8.48;;
51612;SDS011;37694;51.748;14.326;2023-04-29T09:40:41;33.13;;;7.43;;
51612;SDS011;37694;51.748;14.326;2023-04-29T09:43:13;37.72;;;8.00;;
51612;SDS011;37694;51.748;14.326;2023-04-29T09:45:42;30.67;;;7.72;;
51612;SDS011;37694;51.748;14.326;2023-04-29T09:48:12;32.63;;;8.90;;
51612;SDS011;37694;51.748;14.326;2023-04-29T09:50:38;31.05;;;6.85;;
51612;SDS011;37694;51.748;14.326;2023-04-29T09:53:06;27.25;;;7.97;;
51612;SDS011;37694;51.748;14.326;2023-04-29T09:55:36;30.30;;;7.88;;
51612;SDS011;37694;51.748;14.326;2023-04-29T09:58:28;26.92;;;7.03;;
51612;SDS011;37694;51.748;14.326;2023-04-29T10:00:57;23.88;;;8.15;;
51612;SDS011;37694;51.748;14.326;2023-04-29T10:03:28;15.40;;;5.75;;
51612;SDS011;37694;51.748;14.326;2023-04-29T10:06:00;20.02;;;5.47;;
51612;SDS011;37694;51.748;14.326;2023-04-29T10:08:30;19.60;;;6.78;;
51612;SDS011;37694;51.748;14.326;2023-04-29T10:10:58;25.35;;;7.55;;
51612;SDS011;37694;51.748;14.326;2023-04-29T10:13:26;19.48;;;6.05;;
51612;SDS011;37694;51.748;14.326;2023-04-29T10:18:35;23.60;;;6.97;;
51612;SDS011;37694;51.748;14.326;2023-04-29T10:21:02;23.67;;;7.60;;
51612;SDS011;37694;51.748;14.326;2023-04-29T10:23:30;33.53;;;8.35;;
51612;SDS011;37694;51.748;14.326;2023-04-29T10:25:58;23.48;;;6.60;;
51612;SDS011;37694;51.748;14.326;2023-04-29T10:28:27;41.58;;;7.70;;
51612;SDS011;37694;51.748;14.326;2023-04-29T10:30:56;19.33;;;6.05;;
51612;SDS011;37694;51.748;14.326;2023-04-29T10:33:28;21.63;;;6.70;;
51612;SDS011;37694;51.748;14.326;2023-04-29T10:35:56;26.13;;;6.43;;
51612;SDS011;37694;51.748;14.326;2023-04-29T10:38:25;19.92;;;5.85;;
51612;SDS011;37694;51.748;14.326;2023-04-29T10:40:53;29.15;;;7.25;;
51612;SDS011;37694;51.748;14.326;2023-04-29T10:43:25;31.88;;;7.85;;
51612;SDS011;37694;51.748;14.326;2023-04-29T10:46:16;26.60;;;6.53;;
51612;SDS011;37694;51.748;14.326;2023-04-29T10:48:57;28.90;;;7.32;;
51612;SDS011;37694;51.748;14.326;2023-04-29T10:51:29;25.02;;;6.90;;
51612;SDS011;37694;51.748;14.326;2023-04-29T10:56:35;27.98;;;6.40;;
51612;SDS011;37694;51.748;14.326;2023-04-29T10:59:02;34.45;;;7.85;;
51612;SDS011;37694;51.748;14.326;2023-04-29T11:01:47;26.80;;;6.18;;
51612;SDS011;37694;51.748;14.326;2023-04-29T11:04:14;33.25;;;6.80;;
51612;SDS011;37694;51.748;14.326;2023-04-29T11:06:43;30.33;;;8.02;;
51612;SDS011;37694;51.748;14.326;2023-04-29T11:09:13;16.42;;;6.03;;
51612;SDS011;37694;51.748;14.326;2023-04-29T11:11:43;27.25;;;5.70;;
51612;SDS011;37694;51.748;14.326;2023-04-29T11:14:20;20.40;;;6.72;;
51612;SDS011;37694;51.748;14.326;2023-04-29T11:17:12;23.88;;;6.32;;
51612;SDS011;37694;51.748;14.326;2023-04-29T11:19:42;24.73;;;6.55;;
51612;SDS011;37694;51.748;14.326;2023-04-29T11:24:47;27.55;;;6.53;;
51612;SDS011;37694;51.748;14.326;2023-04-29T11:27:20;20.98;;;6.20;;
51612;SDS011;37694;51.748;14.326;2023-04-29T11:29:49;29.77;;;6.95;;
51612;SDS011;37694;51.748;14.326;2023-04-29T11:32:19;22.60;;;6.00;;
51612;SDS011;37694;51.748;14.326;2023-04-29T11:34:46;38.28;;;6.25;;
51612;SDS011;37694;51.748;14.326;2023-04-29T11:37:12;26.17;;;6.47;;
51612;SDS011;37694;51.748;14.326;2023-04-29T11:39:43;21.42;;;6.43;;
51612;SDS011;37694;51.748;14.326;2023-04-29T11:42:08;23.17;;;6.22;;
51612;SDS011;37694;51.748;14.326;2023-04-29T11:44:34;18.20;;;5.50;;
51612;SDS011;37694;51.748;14.326;2023-04-29T11:47:04;21.58;;;5.82;;
51612;SDS011;37694;51.748;14.326;2023-04-29T11:49:31;24.23;;;6.80;;
51612;SDS011;37694;51.748;14.326;2023-04-29T11:51:57;28.95;;;5.45;;
51612;SDS011;37694;51.748;14.326;2023-04-29T11:54:26;19.65;;;5.75;;
51612;SDS011;37694;51.748;14.326;2023-04-29T11:56:53;26.88;;;6.32;;
51612;SDS011;37694;51.748;14.326;2023-04-29T11:59:20;22.13;;;5.32;;
51612;SDS011;37694;51.748;14.326;2023-04-29T12:01:47;18.90;;;6.03;;
51612;SDS011;37694;51.748;14.326;2023-04-29T12:04:16;18.08;;;5.07;;
51612;SDS011;37694;51.748;14.326;2023-04-29T12:06:43;20.20;;;6.20;;
51612;SDS011;37694;51.748;14.326;2023-04-29T12:09:11;11.98;;;5.25;;
51612;SDS011;37694;51.748;14.326;2023-04-29T12:11:47;19.73;;;5.53;;
51612;SDS011;37694;51.748;14.326;2023-04-29T12:14:16;18.80;;;5.70;;
51612;SDS011;37694;51.748;14.326;2023-04-29T12:16:42;11.25;;;4.68;;
51612;SDS011;37694;51.748;14.326;2023-04-29T12:19:10;22.35;;;6.15;;
51612;SDS011;37694;51.748;14.326;2023-04-29T12:21:36;15.52;;;5.28;;
51612;SDS011;37694;51.748;14.326;2023-04-29T12:24:11;19.05;;;5.32;;
51612;SDS011;37694;51.748;14.326;2023-04-29T12:26:38;14.25;;;5.60;;
51612;SDS011;37694;51.748;14.326;2023-04-29T12:29:04;17.92;;;5.07;;
51612;SDS011;37694;51.748;14.326;2023-04-29T12:31:33;13.88;;;5.38;;
51612;SDS011;37694;51.748;14.326;2023-04-29T12:33:58;12.98;;;4.85;;
51612;SDS011;37694;51.748;14.326;2023-04-29T12:36:25;16.98;;;5.57;;
51612;SDS011;37694;51.748;14.326;2023-04-29T12:38:52;13.85;;;5.40;;
51612;SDS011;37694;51.748;14.326;2023-04-29T12:41:34;19.40;;;5.55;;
51612;SDS011;37694;51.748;14.326;2023-04-29T12:44:09;16.73;;;5.10;;
51612;SDS011;37694;51.748;14.326;2023-04-29T12:46:36;14.68;;;5.40;;
51612;SDS011;37694;51.748;14.326;2023-04-29T12:49:02;12.95;;;4.50;;
51612;SDS011;37694;51.748;14.326;2023-04-29T12:51:29;9.82;;;5.10;;
51612;SDS011;37694;51.748;14.326;2023-04-29T12:54:02;13.20;;;4.63;;
51612;SDS011;37694;51.748;14.326;2023-04-29T12:56:30;13.93;;;4.85;;
51612;SDS011;37694;51.748;14.326;2023-04-29T12:58:56;12.07;;;4.47;;
51612;SDS011;37694;51.748;14.326;2023-04-29T13:03:54;12.73;;;5.00;;
51612;SDS011;37694;51.748;14.326;2023-04-29T13:06:20;8.93;;;4.15;;
51612;SDS011;37694;51.748;14.326;2023-04-29T13:08:46;13.73;;;4.85;;
51612;SDS011;37694;51.748;14.326;2023-04-29T13:11:11;7.85;;;3.83;;
51612;SDS011;37694;51.748;14.326;2023-04-29T13:13:37;19.55;;;4.50;;
51612;SDS011;37694;51.748;14.326;2023-04-29T13:16:03;14.27;;;4.88;;
51612;SDS011;37694;51.748;14.326;2023-04-29T13:18:29;10.25;;;4.78;;
51612;SDS011;37694;51.748;14.326;2023-04-29T13:20:55;10.88;;;4.75;;
51612;SDS011;37694;51.748;14.326;2023-04-29T13:23:20;9.10;;;4.50;;
51612;SDS011;37694;51.748;14.326;2023-04-29T13:25:46;8.30;;;4.53;;
51612;SDS011;37694;51.748;14.326;2023-04-29T13:28:14;10.38;;;4.63;;
51612;SDS011;37694;51.748;14.326;2023-04-29T13:30:40;7.68;;;4.47;;
51612;SDS011;37694;51.748;14.326;2023-04-29T13:33:06;7.25;;;4.25;;
51612;SDS011;37694;51.748;14.326;2023-04-29T13:35:31;9.80;;;4.28;;
51612;SDS011;37694;51.748;14.326;2023-04-29T13:38:00;6.20;;;3.60;;
51612;SDS011;37694;51.748;14.326;2023-04-29T13:40:26;9.98;;;4.43;;
51612;SDS011;37694;51.748;14.326;2023-04-29T13:42:51;9.27;;;4.50;;
51612;SDS011;37694;51.748;14.326;2023-04-29T13:45:17;10.60;;;5.00;;
51612;SDS011;37694;51.748;14.326;2023-04-29T13:47:43;9.30;;;5.07;;
51612;SDS011;37694;51.748;14.326;2023-04-29T13:50:09;10.98;;;4.65;;
51612;SDS011;37694;51.748;14.326;2023-04-29T13:52:35;8.18;;;4.78;;
51612;SDS011;37694;51.748;14.326;2023-04-29T13:55:01;6.78;;;4.43;;
51612;SDS011;37694;51.748;14.326;2023-04-29T13:57:26;13.02;;;4.20;;
51612;SDS011;37694;51.748;14.326;2023-04-29T13:59:52;8.15;;;4.43;;
51612;SDS011;37694;51.748;14.326;2023-04-29T14:02:19;7.72;;;4.43;;
51612;SDS011;37694;51.748;14.326;2023-04-29T14:04:46;9.75;;;4.25;;
51612;SDS011;37694;51.748;14.326;2023-04-29T14:07:15;8.38;;;3.90;;
51612;SDS011;37694;51.748;14.326;2023-04-29T14:09:41;9.93;;;5.13;;
51612;SDS011;37694;51.748;14.326;2023-04-29T14:12:06;7.43;;;4.47;;
51612;SDS011;37694;51.748;14.326;2023-04-29T14:14:32;9.38;;;4.13;;
51612;SDS011;37694;51.748;14.326;2023-04-29T14:16:58;7.93;;;4.05;;
51612;SDS011;37694;51.748;14.326;2023-04-29T14:19:25;7.53;;;4.55;;
51612;SDS011;37694;51.748;14.326;2023-04-29T14:21:51;8.25;;;4.50;;
51612;SDS011;37694;51.748;14.326;2023-04-29T14:24:16;9.98;;;4.38;;
51612;SDS011;37694;51.748;14.326;2023-04-29T14:26:42;9.43;;;4.07;;
51612;SDS011;37694;51.748;14.326;2023-04-29T14:29:08;6.20;;;4.25;;
51612;SDS011;37694;51.748;14.326;2023-04-29T14:31:34;6.28;;;4.00;;
51612;SDS011;37694;51.748;14.326;2023-04-29T14:34:03;5.50;;;4.40;;
51612;SDS011;37694;51.748;14.326;2023-04-29T14:36:29;8.43;;;4.05;;
51612;SDS011;37694;51.748;14.326;2023-04-29T14:38:57;4.50;;;3.75;;
51612;SDS011;37694;51.748;14.326;2023-04-29T14:41:23;9.13;;;4.13;;
51612;SDS011;37694;51.748;14.326;2023-04-29T14:43:49;7.80;;;3.70;;
51612;SDS011;37694;51.748;14.326;2023-04-29T14:46:15;5.82;;;3.97;;
51612;SDS011;37694;51.748;14.326;2023-04-29T14:48:40;6.80;;;3.90;;
51612;SDS011;37694;51.748;14.326;2023-04-29T14:51:06;7.38;;;4.40;;
51612;SDS011;37694;51.748;14.326;2023-04-29T14:53:32;9.23;;;4.20;;